Mason City Municipal Airport Mason City US
ICAO: KMCW
IATA: MCW
Category: Medium
Scheduled Services: No

Elevation: 1213 ft
TransAlt. 18000 ft.

Airport Communications:
ASOS:120.3
MINNEAPOLIS CNTR:127.3
FORT DODGE RDO:122.6
CTAF/UNICOM:123

KMCW Zoom In..

If you have problems with the map follow the link
https://www.worldairports.se/pages/airport.php?
ICAO=KMCW

Runways:

(A) RW 12 length 5502 ft width 150 ft
---- / hdg 120

(B) RW 18 length 6501 ft width 150 ft
---- / hdg 175

(C) RW 30 length 5502 ft width 150 ft
---- / hdg 300

(D) RW 36 length 6501 ft width 150 ft
ILS 109.50 / hdg 355

Location; KMCW
Day. 24 / Time. 10.53 Zulu
* Altimeter: 30.04
* Temperature: 04° c. 39.2°f.
* Wind from: 110° Speed 07 kn.
Dewpoint: 04° c.
Visibility: 7 Statute Miles.
Clouds: Few 2500 ft.
Clouds: Overcast 5000 ft.

KMCW 241053Z AUTO 11007KT 7SM FEW025 OVC050 04/04 A3004 RMK AO2 SLP175 T00390039


Wind From 110°
Speed 07 kn.

 
 
jpsmedia.com for Web Design worldairports.se 2019   terms of use